Time;durP1;ratioP1;P1;durP2;ratioP2;P2;SDS_P1;SDS_P2;PMS_P1;PMS_P2;Temp;Humidity;BMP_temperature;BMP_pressure;BME280_temperature;BME280_humidity;BME280_pressure;Samples;Min_cycle;Max_cycle;Signal;HPM_P1;HPM_P2
2023/09/06 00:00:55;;;;;;;28.35;26.17;;;24.30;99.90;;;;;;4865607;29;20040;-90
2023/09/06 00:03:21;;;;;;;30.05;27.33;;;24.30;99.90;;;;;;4865198;29;20025;-91
2023/09/06 00:05:48;;;;;;;30.80;27.83;;;24.30;99.90;;;;;;4849961;29;20041;-90
2023/09/06 00:08:16;;;;;;;30.05;27.52;;;24.30;99.90;;;;;;4849726;29;20033;-91
2023/09/06 00:10:45;;;;;;;29.52;26.92;;;24.30;99.90;;;;;;4865284;29;20036;-91
2023/09/06 00:13:13;;;;;;;28.98;26.23;;;24.20;99.90;;;;;;4865255;29;20494;-90
2023/09/06 00:15:40;;;;;;;30.30;27.15;;;24.20;99.90;;;;;;4864954;29;20520;-91
2023/09/06 00:18:06;;;;;;;29.45;27.20;;;24.20;99.90;;;;;;4865038;29;20033;-91
2023/09/06 00:20:38;;;;;;;30.38;27.52;;;24.20;99.90;;;;;;4864866;29;20495;-91
2023/09/06 00:23:09;;;;;;;29.10;26.65;;;24.20;99.90;;;;;;4864947;29;20032;-92
2023/09/06 00:25:36;;;;;;;29.27;26.48;;;24.20;99.90;;;;;;4864868;29;20032;-93
2023/09/06 00:28:04;;;;;;;28.92;26.73;;;24.20;99.90;;;;;;4864608;29;20044;-90
2023/09/06 00:30:31;;;;;;;28.95;26.63;;;24.20;99.90;;;;;;4864876;29;20041;-90
2023/09/06 00:32:59;;;;;;;29.98;27.45;;;24.20;99.90;;;;;;4864954;29;20375;-90
2023/09/06 00:35:26;;;;;;;30.17;27.73;;;24.20;99.90;;;;;;4864497;29;20033;-92
2023/09/06 00:37:54;;;;;;;30.98;28.25;;;24.10;99.90;;;;;;4868094;29;20033;-91
2023/09/06 00:40:21;;;;;;;30.13;27.60;;;24.10;99.90;;;;;;4867705;29;20371;-91
2023/09/06 00:42:59;;;;;;;29.95;27.50;;;24.10;99.90;;;;;;4883145;29;20088;-90
2023/09/06 00:45:36;;;;;;;30.60;27.90;;;24.10;99.90;;;;;;4883170;29;20029;-91
2023/09/06 00:48:05;;;;;;;31.15;28.42;;;24.10;99.90;;;;;;4898622;29;20541;-90
2023/09/06 00:50:36;;;;;;;31.45;28.75;;;24.10;99.90;;;;;;4883172;29;20582;-90
2023/09/06 00:53:07;;;;;;;30.55;28.10;;;24.10;99.90;;;;;;4882849;29;20401;-91
2023/09/06 00:55:37;;;;;;;30.73;27.95;;;24.00;99.90;;;;;;4882906;29;20142;-91
2023/09/06 00:58:08;;;;;;;31.08;28.02;;;24.00;99.90;;;;;;4874712;29;20033;-91
2023/09/06 01:00:36;;;;;;;30.63;28.15;;;24.00;99.90;;;;;;4848843;29;20029;-90
2023/09/06 01:03:05;;;;;;;30.00;27.70;;;24.00;99.90;;;;;;4848920;29;20566;-90
2023/09/06 01:05:44;;;;;;;31.35;28.35;;;24.00;99.90;;;;;;4864045;29;20040;-90
2023/09/06 01:08:18;;;;;;;31.90;28.90;;;23.90;99.90;;;;;;4864434;29;20037;-90
2023/09/06 01:10:45;;;;;;;33.33;29.92;;;23.90;99.90;;;;;;4864526;29;20029;-91
2023/09/06 01:13:12;;;;;;;32.50;29.48;;;23.90;99.90;;;;;;4864447;29;20499;-90
2023/09/06 01:15:45;;;;;;;32.55;29.50;;;23.80;99.90;;;;;;4864258;29;20150;-91
2023/09/06 01:18:13;;;;;;;32.00;28.95;;;23.80;99.90;;;;;;4864299;29;20036;-91
2023/09/06 01:20:51;;;;;;;33.00;29.67;;;23.80;99.90;;;;;;4864222;29;20025;-90
2023/09/06 01:23:39;;;;;;;32.20;29.60;;;23.70;99.90;;;;;;4878435;29;20033;-90
2023/09/06 01:26:08;;;;;;;32.08;29.55;;;23.80;99.90;;;;;;4898110;29;20047;-91
2023/09/06 01:28:35;;;;;;;33.47;30.17;;;23.70;99.90;;;;;;4867320;29;20546;-90
2023/09/06 01:31:02;;;;;;;32.03;29.35;;;23.70;99.90;;;;;;4867295;29;20482;-90
2023/09/06 01:33:30;;;;;;;31.73;28.88;;;23.70;99.90;;;;;;4881124;29;20444;-91
2023/09/06 01:35:57;;;;;;;32.72;29.70;;;23.70;99.90;;;;;;4863855;29;20053;-90
2023/09/06 01:38:27;;;;;;;31.08;28.35;;;23.70;99.90;;;;;;4848552;29;20025;-92
2023/09/06 01:40:54;;;;;;;31.73;28.65;;;23.70;99.90;;;;;;4863857;29;20508;-91
2023/09/06 01:43:20;;;;;;;30.60;28.23;;;23.60;99.90;;;;;;4864320;29;20044;-91
2023/09/06 01:45:54;;;;;;;32.53;29.10;;;23.60;99.90;;;;;;4848446;29;20506;-93
2023/09/06 01:48:21;;;;;;;31.13;28.48;;;23.60;99.90;;;;;;4863984;29;20040;-93
2023/09/06 01:50:48;;;;;;;32.10;28.95;;;23.60;99.90;;;;;;4863824;29;20530;-91
2023/09/06 01:53:14;;;;;;;29.92;27.58;;;23.60;99.90;;;;;;4848569;29;20045;-89
2023/09/06 01:55:43;;;;;;;30.90;28.30;;;23.50;99.90;;;;;;4863910;29;20526;-92
2023/09/06 01:58:11;;;;;;;31.55;28.75;;;23.50;99.90;;;;;;4868285;29;20028;-90
2023/09/06 02:00:38;;;;;;;31.52;28.73;;;23.50;99.90;;;;;;4882429;29;20081;-91
2023/09/06 02:03:07;;;;;;;31.83;29.15;;;23.50;99.90;;;;;;4882171;29;20120;-91
2023/09/06 02:05:35;;;;;;;31.83;28.98;;;23.50;99.90;;;;;;4882352;29;20024;-92
2023/09/06 02:08:04;;;;;;;32.28;29.30;;;23.50;99.90;;;;;;4894677;29;20040;-91
2023/09/06 02:10:31;;;;;;;32.08;28.92;;;23.50;99.90;;;;;;4863874;29;20029;-91
2023/09/06 02:12:57;;;;;;;31.20;28.42;;;23.50;99.90;;;;;;4863821;29;20045;-91
2023/09/06 02:15:24;;;;;;;30.70;28.23;;;23.40;99.90;;;;;;4848292;29;20029;-90
2023/09/06 02:17:50;;;;;;;29.55;27.10;;;23.50;99.90;;;;;;4848437;29;20514;-90
2023/09/06 02:20:20;;;;;;;30.48;27.67;;;23.40;99.90;;;;;;4867204;29;20097;-92
2023/09/06 02:22:57;;;;;;;29.65;27.33;;;23.50;99.90;;;;;;4851982;29;20128;-91
2023/09/06 02:25:26;;;;;;;30.05;27.60;;;23.50;99.90;;;;;;4867220;29;20035;-90
2023/09/06 02:27:52;;;;;;;29.88;27.23;;;23.50;99.90;;;;;;4867250;29;20126;-91
2023/09/06 02:30:20;;;;;;;29.38;26.75;;;23.50;99.90;;;;;;4866910;29;20037;-90
2023/09/06 02:32:47;;;;;;;28.77;26.55;;;23.60;99.90;;;;;;4866907;29;20037;-90
2023/09/06 02:35:14;;;;;;;28.95;26.63;;;23.60;99.90;;;;;;4851724;29;20029;-91
2023/09/06 02:37:40;;;;;;;29.17;26.45;;;23.60;99.90;;;;;;4866803;29;20124;-91
2023/09/06 02:40:13;;;;;;;28.92;26.38;;;23.60;99.90;;;;;;4882166;29;20067;-91
2023/09/06 02:42:41;;;;;;;29.60;26.88;;;23.60;99.90;;;;;;4851573;29;20033;-90
2023/09/06 02:45:11;;;;;;;30.02;27.63;;;23.70;99.90;;;;;;4866809;29;20029;-91
2023/09/06 02:47:49;;;;;;;28.92;26.63;;;23.70;99.90;;;;;;4866888;29;20033;-91
2023/09/06 02:50:17;;;;;;;29.40;27.17;;;23.70;99.90;;;;;;4866416;29;20390;-90
2023/09/06 02:52:47;;;;;;;29.50;27.00;;;23.70;99.90;;;;;;4866631;29;20160;-90
2023/09/06 02:55:14;;;;;;;30.00;27.25;;;23.70;99.90;;;;;;4866564;29;20044;-89
2023/09/06 02:57:41;;;;;;;29.58;26.73;;;23.60;99.90;;;;;;4866427;29;20498;-89
2023/09/06 03:00:18;;;;;;;29.58;27.25;;;23.60;99.90;;;;;;4866861;29;20119;-91
2023/09/06 03:02:48;;;;;;;28.95;26.52;;;23.70;99.90;;;;;;4866370;29;20044;-89
2023/09/06 03:05:18;;;;;;;29.60;27.17;;;23.70;99.90;;;;;;4867090;29;20032;-91
2023/09/06 03:07:49;;;;;;;28.75;26.55;;;23.70;99.90;;;;;;4851276;29;20173;-88
2023/09/06 03:10:19;;;;;;;28.65;26.50;;;23.70;99.90;;;;;;4866209;29;20037;-90
2023/09/06 03:12:54;;;;;;;28.83;26.48;;;23.70;99.90;;;;;;4866129;29;20037;-92
2023/09/06 03:15:27;;;;;;;30.27;27.20;;;23.70;99.90;;;;;;4867238;29;20029;-89
2023/09/06 03:18:02;;;;;;;29.92;27.30;;;23.70;99.90;;;;;;4868500;29;20048;-90
2023/09/06 03:20:33;;;;;;;28.02;25.98;;;23.70;99.90;;;;;;4866218;29;20060;-91
2023/09/06 03:23:16;;;;;;;28.37;25.77;;;23.70;99.90;;;;;;4866223;29;20036;-91
2023/09/06 03:25:48;;;;;;;28.00;25.50;;;23.70;99.90;;;;;;4866976;29;20116;-90
2023/09/06 03:28:15;;;;;;;28.90;26.23;;;23.70;99.90;;;;;;4865828;29;20045;-91
2023/09/06 03:30:42;;;;;;;28.08;25.20;;;23.70;99.90;;;;;;4850166;29;20029;-89
2023/09/06 03:33:09;;;;;;;28.25;25.50;;;23.80;99.90;;;;;;4865887;29;20035;-88
2023/09/06 03:35:36;;;;;;;28.10;25.77;;;23.80;99.90;;;;;;4865605;29;20033;-89
2023/09/06 03:38:08;;;;;;;27.98;25.58;;;23.70;99.90;;;;;;4865757;29;20551;-88
2023/09/06 03:40:35;;;;;;;27.45;25.13;;;23.80;99.90;;;;;;4865630;29;20037;-90
2023/09/06 03:43:06;;;;;;;26.95;25.05;;;23.70;99.90;;;;;;4850429;29;20035;-89
2023/09/06 03:45:34;;;;;;;27.95;25.45;;;23.70;99.90;;;;;;4866709;29;20036;-90
2023/09/06 03:48:00;;;;;;;28.00;25.65;;;23.70;99.90;;;;;;4852353;29;20033;-90
2023/09/06 03:50:29;;;;;;;27.80;25.60;;;23.70;99.90;;;;;;4888180;29;20029;-90
2023/09/06 03:52:57;;;;;;;27.35;25.17;;;23.70;99.90;;;;;;4884775;29;20029;-90
2023/09/06 03:55:24;;;;;;;27.75;25.30;;;23.70;99.90;;;;;;4886190;29;20032;-90
2023/09/06 03:57:52;;;;;;;27.20;25.30;;;23.70;99.90;;;;;;4899579;29;20037;-89
2023/09/06 04:00:29;;;;;;;28.00;25.67;;;23.70;99.90;;;;;;4884194;29;20035;-90
2023/09/06 04:03:08;;;;;;;28.15;25.98;;;23.70;99.90;;;;;;4884189;29;20482;-90
2023/09/06 04:05:35;;;;;;;28.38;25.85;;;23.70;99.90;;;;;;4868683;29;20032;-89
2023/09/06 04:08:04;;;;;;;27.92;25.58;;;23.70;99.90;;;;;;4868610;29;20033;-89
2023/09/06 04:10:38;;;;;;;27.40;25.58;;;23.60;99.90;;;;;;4868296;29;20115;-90
2023/09/06 04:13:08;;;;;;;28.63;26.30;;;23.60;99.90;;;;;;4883946;29;20041;-90
2023/09/06 04:15:35;;;;;;;28.50;26.30;;;23.60;99.90;;;;;;4883451;29;20035;-90
2023/09/06 04:18:05;;;;;;;27.58;25.50;;;23.50;99.90;;;;;;4883545;29;20036;-88
2023/09/06 04:20:36;;;;;;;29.05;26.73;;;23.50;99.90;;;;;;4868264;29;20025;-89
2023/09/06 04:23:05;;;;;;;30.10;27.27;;;23.50;99.90;;;;;;4899243;29;20036;-89
2023/09/06 04:25:43;;;;;;;29.63;26.52;;;23.50;99.90;;;;;;4899595;29;20493;-90
2023/09/06 04:28:15;;;;;;;29.05;26.80;;;23.40;99.90;;;;;;4880656;29;20507;-89
2023/09/06 04:30:48;;;;;;;28.60;26.30;;;23.50;99.90;;;;;;4849461;29;20057;-90
2023/09/06 04:33:18;;;;;;;28.83;26.77;;;23.50;99.90;;;;;;4865318;29;20040;-89
2023/09/06 04:35:53;;;;;;;28.67;26.75;;;23.50;99.90;;;;;;4850579;29;20040;-90
2023/09/06 04:38:23;;;;;;;30.15;27.70;;;23.50;99.90;;;;;;4849825;29;20113;-90
2023/09/06 04:40:58;;;;;;;29.88;27.65;;;23.50;99.90;;;;;;4864532;29;20029;-89
2023/09/06 04:43:28;;;;;;;30.13;27.75;;;23.50;99.90;;;;;;4849706;29;20045;-90
2023/09/06 04:45:56;;;;;;;29.67;27.48;;;23.40;99.90;;;;;;4849698;29;20040;-90
2023/09/06 04:48:23;;;;;;;30.13;27.90;;;23.40;99.90;;;;;;4864820;29;20033;-88
2023/09/06 04:50:59;;;;;;;29.70;27.58;;;23.40;99.90;;;;;;4865469;29;20033;-90
2023/09/06 04:53:28;;;;;;;30.80;28.27;;;23.40;99.90;;;;;;4864647;29;20484;-90
2023/09/06 04:55:56;;;;;;;30.00;28.05;;;23.40;99.90;;;;;;4864584;29;20037;-87
2023/09/06 04:58:26;;;;;;;30.02;27.60;;;23.40;99.90;;;;;;4864907;29;20041;-89
2023/09/06 05:00:53;;;;;;;30.58;28.05;;;23.40;99.90;;;;;;4848886;29;20787;-89
2023/09/06 05:03:20;;;;;;;29.55;27.38;;;23.30;99.90;;;;;;4864386;29;20041;-89
2023/09/06 05:05:52;;;;;;;30.08;27.50;;;23.40;99.90;;;;;;4864286;29;20036;-88
2023/09/06 05:08:20;;;;;;;29.98;27.45;;;23.40;99.90;;;;;;4864243;29;20025;-89
2023/09/06 05:10:52;;;;;;;28.75;26.73;;;23.40;99.90;;;;;;4848871;29;20089;-89
2023/09/06 05:13:20;;;;;;;29.90;27.42;;;23.50;99.90;;;;;;4864272;29;20067;-89
2023/09/06 05:15:47;;;;;;;30.45;27.85;;;23.50;99.90;;;;;;4863940;29;20029;-89
2023/09/06 05:18:14;;;;;;;29.77;27.48;;;23.50;99.90;;;;;;4864186;29;20372;-89
2023/09/06 05:20:43;;;;;;;29.00;26.95;;;23.50;99.90;;;;;;4863923;29;20497;-89
2023/09/06 05:23:17;;;;;;;29.95;27.70;;;23.50;99.90;;;;;;4879671;29;20044;-88
2023/09/06 05:25:46;;;;;;;29.60;27.35;;;23.50;99.90;;;;;;4864205;29;20116;-93
2023/09/06 05:28:23;;;;;;;29.33;27.33;;;23.50;99.90;;;;;;4868408;29;20124;-92
2023/09/06 05:30:56;;;;;;;28.92;26.83;;;23.60;99.90;;;;;;4850111;29;20040;-91
2023/09/06 05:33:22;;;;;;;29.40;27.17;;;23.50;99.90;;;;;;4879336;29;20123;-91
2023/09/06 05:35:49;;;;;;;29.55;27.52;;;23.50;99.90;;;;;;4879483;29;20059;-92
2023/09/06 05:38:17;;;;;;;29.80;27.50;;;23.50;99.90;;;;;;4863969;29;20093;-91
2023/09/06 05:40:44;;;;;;;29.67;27.33;;;23.60;99.90;;;;;;4865610;29;20021;-92
2023/09/06 05:43:18;;;;;;;29.27;27.02;;;23.50;99.90;;;;;;4865022;29;20036;-93
2023/09/06 05:45:45;;;;;;;29.70;27.35;;;23.50;99.90;;;;;;4864418;29;20033;-93
2023/09/06 05:48:13;;;;;;;30.17;27.67;;;23.50;99.90;;;;;;4850085;29;20021;-93
2023/09/06 05:50:40;;;;;;;29.98;27.50;;;23.60;99.90;;;;;;4879108;29;20045;-91
2023/09/06 05:53:08;;;;;;;29.90;27.55;;;23.60;99.90;;;;;;4850579;29;20025;-93
2023/09/06 05:55:34;;;;;;;29.50;27.17;;;23.60;99.90;;;;;;4850534;29;20038;-88
2023/09/06 05:58:01;;;;;;;30.45;28.05;;;23.60;99.90;;;;;;4833897;29;20100;-87
2023/09/06 06:00:28;;;;;;;30.55;28.27;;;23.70;99.90;;;;;;4848992;29;20124;-88
2023/09/06 06:02:58;;;;;;;30.27;27.98;;;23.70;99.90;;;;;;4851884;29;20032;-88
2023/09/06 06:05:25;;;;;;;31.05;28.50;;;23.80;99.90;;;;;;4862404;29;20026;-89
2023/09/06 06:07:51;;;;;;;30.92;28.30;;;23.80;99.90;;;;;;4848716;29;20551;-90
2023/09/06 06:10:17;;;;;;;30.88;28.35;;;23.90;99.90;;;;;;4848847;29;20030;-89
2023/09/06 06:12:44;;;;;;;30.08;27.98;;;24.00;99.90;;;;;;4867238;29;20123;-90
2023/09/06 06:15:14;;;;;;;29.77;27.08;;;24.00;99.90;;;;;;4867406;29;20036;-90
2023/09/06 06:17:42;;;;;;;28.85;26.90;;;24.10;99.90;;;;;;4866093;29;20045;-79
2023/09/06 06:20:10;;;;;;;28.98;26.70;;;24.20;99.90;;;;;;4898394;29;20164;-80
2023/09/06 06:22:40;;;;;;;27.15;25.35;;;24.20;99.90;;;;;;4881077;29;20029;-80
2023/09/06 06:25:10;;;;;;;27.27;25.38;;;24.30;99.90;;;;;;4863839;29;20086;-81
2023/09/06 07:16:25;;;;;;;27.23;25.10;;;24.90;99.90;;;;;;5898656;23;20020;-87
2023/09/06 07:18:51;;;;;;;27.10;25.10;;;25.00;99.90;;;;;;4897416;29;20045;-81
2023/09/06 07:21:21;;;;;;;26.58;24.77;;;25.10;99.90;;;;;;4898971;29;20067;-81
2023/09/06 07:23:47;;;;;;;27.23;24.70;;;25.30;99.90;;;;;;4867758;29;20092;-81
2023/09/06 07:26:14;;;;;;;27.00;25.00;;;25.40;99.90;;;;;;4894490;29;20035;-81
2023/09/06 07:28:45;;;;;;;25.80;23.85;;;25.50;99.90;;;;;;4902323;29;20052;-81
2023/09/06 07:31:14;;;;;;;26.05;24.30;;;25.40;99.90;;;;;;4883258;29;20028;-82
2023/09/06 07:33:41;;;;;;;26.85;24.70;;;25.50;99.90;;;;;;4883136;29;20628;-81
2023/09/06 07:36:07;;;;;;;26.65;24.65;;;25.70;99.90;;;;;;4883121;29;20119;-82
2023/09/06 07:38:34;;;;;;;26.60;24.75;;;25.80;99.90;;;;;;4916034;29;20080;-81
2023/09/06 07:41:03;;;;;;;26.17;24.48;;;25.60;99.90;;;;;;4886152;29;20433;-81
2023/09/06 07:43:30;;;;;;;26.13;24.13;;;25.60;99.90;;;;;;4901810;29;20047;-81
2023/09/06 07:46:00;;;;;;;26.33;24.55;;;25.70;99.90;;;;;;4885997;29;20389;-81
2023/09/06 07:48:29;;;;;;;26.98;25.27;;;25.80;99.90;;;;;;4871365;29;20119;-81
2023/09/06 07:50:59;;;;;;;27.20;25.40;;;26.10;99.90;;;;;;4867424;29;20025;-81
2023/09/06 07:53:26;;;;;;;26.63;24.88;;;26.50;99.90;;;;;;4899660;29;20025;-81
2023/09/06 07:55:53;;;;;;;26.95;25.00;;;26.50;99.90;;;;;;4882742;29;20024;-82
2023/09/06 07:58:20;;;;;;;26.98;25.08;;;26.40;99.90;;;;;;4896665;29;20493;-81
2023/09/06 08:00:47;;;;;;;27.33;25.30;;;26.60;99.90;;;;;;4918346;29;20020;-82
2023/09/06 08:03:14;;;;;;;27.60;25.30;;;26.30;99.90;;;;;;4918408;29;20102;-82
2023/09/06 08:05:41;;;;;;;27.42;25.63;;;26.20;99.90;;;;;;4918180;29;20386;-82
2023/09/06 08:08:09;;;;;;;27.83;25.73;;;26.10;99.90;;;;;;4880396;29;20123;-81
2023/09/06 08:10:37;;;;;;;27.13;25.05;;;25.80;99.90;;;;;;4880653;29;20558;-81
2023/09/06 08:13:04;;;;;;;27.15;24.92;;;25.80;99.90;;;;;;4882413;29;20123;-81
2023/09/06 08:15:35;;;;;;;27.02;25.02;;;25.70;99.90;;;;;;4898288;29;20033;-81
2023/09/06 08:18:05;;;;;;;26.35;24.63;;;25.60;99.90;;;;;;4902908;29;20056;-82
2023/09/06 08:20:32;;;;;;;26.98;25.00;;;25.70;99.90;;;;;;4900961;29;20024;-82
2023/09/06 08:22:58;;;;;;;26.42;24.55;;;26.00;99.90;;;;;;4901069;29;20032;-81
2023/09/06 08:25:25;;;;;;;26.70;24.63;;;26.00;99.90;;;;;;4916627;29;20054;-81
2023/09/06 08:27:51;;;;;;;27.67;25.33;;;26.10;99.90;;;;;;4906426;29;20053;-82
2023/09/06 08:30:21;;;;;;;26.15;24.35;;;26.20;99.90;;;;;;4898844;29;20032;-81
2023/09/06 08:32:49;;;;;;;27.23;25.13;;;26.20;99.90;;;;;;4882038;29;20036;-81
2023/09/06 08:35:17;;;;;;;26.80;24.90;;;26.10;99.90;;;;;;4897735;29;20033;-82
2023/09/06 08:37:47;;;;;;;26.33;24.60;;;26.00;99.90;;;;;;4890724;29;20032;-82
2023/09/06 08:40:15;;;;;;;27.10;25.23;;;26.30;99.90;;;;;;4916368;29;20505;-81
2023/09/06 08:42:45;;;;;;;27.58;25.50;;;26.40;99.90;;;;;;4916419;29;20036;-82
2023/09/06 08:45:11;;;;;;;27.10;25.33;;;26.30;99.90;;;;;;4887463;29;20029;-82
2023/09/06 08:47:39;;;;;;;26.38;24.52;;;26.40;99.90;;;;;;4900517;29;20474;-83
2023/09/06 08:50:10;;;;;;;27.02;25.17;;;26.50;99.90;;;;;;4900662;29;20163;-83
2023/09/06 08:52:40;;;;;;;27.35;25.42;;;26.80;99.90;;;;;;4916781;29;20137;-83
2023/09/06 08:55:10;;;;;;;27.83;25.92;;;27.00;99.90;;;;;;4901356;29;20028;-83
2023/09/06 08:57:42;;;;;;;28.10;25.92;;;27.20;99.90;;;;;;4892840;29;20036;-83
2023/09/06 09:00:11;;;;;;;27.98;26.27;;;27.10;99.90;;;;;;4897586;29;20063;-84
2023/09/06 09:02:46;;;;;;;29.15;27.05;;;27.60;99.90;;;;;;4882826;29;20417;-84
2023/09/06 09:05:13;;;;;;;29.65;27.65;;;27.60;99.90;;;;;;4898516;29;20039;-84
2023/09/06 09:07:39;;;;;;;30.58;28.42;;;28.00;99.90;;;;;;4906919;29;20020;-84
2023/09/06 09:10:11;;;;;;;30.58;28.48;;;28.00;99.90;;;;;;4916739;29;20111;-85
2023/09/06 09:12:38;;;;;;;30.27;28.17;;;28.10;99.90;;;;;;4900976;29;20119;-86
2023/09/06 09:15:06;;;;;;;30.45;28.08;;;28.00;99.90;;;;;;4901215;29;20504;-85
2023/09/06 09:17:34;;;;;;;30.23;28.23;;;27.50;99.90;;;;;;4910246;29;20052;-85
2023/09/06 09:20:03;;;;;;;30.63;28.33;;;27.40;99.90;;;;;;4911153;29;20401;-84
2023/09/06 09:22:37;;;;;;;30.52;28.27;;;27.50;99.90;;;;;;4918199;29;20517;-85
2023/09/06 09:25:23;;;;;;;30.33;28.33;;;27.40;99.90;;;;;;4917314;29;20517;-85
2023/09/06 09:27:56;;;;;;;29.25;27.35;;;27.00;99.90;;;;;;4892090;29;20119;-85
2023/09/06 09:30:23;;;;;;;29.67;27.58;;;27.00;99.90;;;;;;4882555;29;20169;-86
2023/09/06 09:32:58;;;;;;;30.42;28.38;;;27.00;99.90;;;;;;4882009;29;20032;-85
2023/09/06 09:35:26;;;;;;;30.17;28.17;;;27.00;99.90;;;;;;4898380;29;20104;-85
2023/09/06 09:37:56;;;;;;;30.30;27.98;;;27.30;99.90;;;;;;4890734;29;20119;-85
2023/09/06 09:40:36;;;;;;;30.23;28.33;;;27.20;99.90;;;;;;4900113;29;20028;-85
2023/09/06 09:43:07;;;;;;;30.38;28.33;;;27.30;99.90;;;;;;4900247;29;20036;-85
2023/09/06 09:45:41;;;;;;;30.88;28.48;;;27.10;99.90;;;;;;4900147;29;20035;-84
2023/09/06 09:48:09;;;;;;;30.25;28.15;;;27.20;99.90;;;;;;4904777;29;20032;-84
2023/09/06 09:50:36;;;;;;;31.10;28.83;;;27.00;99.90;;;;;;4881520;29;20376;-84
2023/09/06 09:53:05;;;;;;;31.02;28.40;;;27.00;99.90;;;;;;4898454;29;20182;-85
2023/09/06 09:55:35;;;;;;;30.25;28.35;;;27.10;99.90;;;;;;4881521;29;20028;-84
2023/09/06 09:58:09;;;;;;;30.77;28.77;;;27.00;99.90;;;;;;4908151;29;20130;-84
2023/09/06 10:00:41;;;;;;;31.30;29.30;;;27.00;99.90;;;;;;4900525;29;20036;-85
2023/09/06 10:03:09;;;;;;;30.73;28.73;;;27.00;99.90;;;;;;4916509;29;20371;-85
2023/09/06 10:05:36;;;;;;;30.55;28.42;;;27.20;99.90;;;;;;4900530;29;20024;-85
2023/09/06 10:08:08;;;;;;;31.33;29.05;;;27.20;99.90;;;;;;4893589;29;20128;-84
2023/09/06 10:10:39;;;;;;;30.67;28.67;;;27.50;99.90;;;;;;4878344;29;20029;-85
2023/09/06 10:13:09;;;;;;;31.70;29.60;;;27.50;99.90;;;;;;4894150;29;20486;-84
2023/09/06 10:15:37;;;;;;;31.77;29.33;;;27.50;99.90;;;;;;4894226;29;20053;-84
2023/09/06 10:18:06;;;;;;;31.58;29.27;;;27.60;99.90;;;;;;4907140;29;20063;-84
2023/09/06 10:20:34;;;;;;;30.98;28.67;;;27.60;99.90;;;;;;4916280;29;20032;-85
2023/09/06 10:23:01;;;;;;;31.05;28.95;;;27.40;99.90;;;;;;4916552;29;20115;-84
2023/09/06 10:25:28;;;;;;;31.15;28.80;;;27.20;99.90;;;;;;4915933;29;20028;-85
2023/09/06 10:27:56;;;;;;;30.45;28.35;;;27.20;99.90;;;;;;4893988;29;20479;-84
2023/09/06 10:30:40;;;;;;;29.58;27.55;;;26.80;99.90;;;;;;4877956;29;20407;-85
2023/09/06 10:33:08;;;;;;;29.10;27.25;;;26.80;99.90;;;;;;4877745;29;20086;-84
2023/09/06 10:35:42;;;;;;;29.52;27.63;;;26.80;99.90;;;;;;4879073;29;20029;-85
2023/09/06 10:38:16;;;;;;;28.90;26.90;;;26.80;99.90;;;;;;4898206;29;20029;-85
2023/09/06 10:40:49;;;;;;;28.27;26.58;;;26.60;99.90;;;;;;4903033;29;20160;-84
2023/09/06 10:44:06;;;;;;;29.70;27.80;;;26.50;99.90;;;;;;4918771;29;20028;-86
2023/09/06 10:46:35;;;;;;;28.95;26.92;;;26.60;99.90;;;;;;4897872;29;20413;-84
2023/09/06 10:49:25;;;;;;;29.33;27.27;;;26.50;99.90;;;;;;4903409;29;20087;-84
2023/09/06 10:51:59;;;;;;;30.25;28.13;;;26.50;99.90;;;;;;4905800;29;20032;-82
2023/09/06 10:54:42;;;;;;;30.10;28.15;;;26.60;99.90;;;;;;4892290;29;20494;-85
2023/09/06 10:57:11;;;;;;;30.08;28.05;;;26.70;99.90;;;;;;4886589;29;20076;-84
2023/09/06 10:59:58;;;;;;;32.08;28.90;;;26.70;99.90;;;;;;4903072;29;20025;-84
2023/09/06 11:02:26;;;;;;;30.77;28.42;;;26.80;99.90;;;;;;4918909;29;20107;-86
2023/09/06 11:05:08;;;;;;;30.75;28.65;;;27.00;99.90;;;;;;4903151;29;20052;-85
2023/09/06 11:07:44;;;;;;;30.60;28.42;;;27.10;99.90;;;;;;4897696;29;20031;-86
2023/09/06 11:10:12;;;;;;;29.88;27.88;;;27.10;99.90;;;;;;4884281;29;20048;-83
2023/09/06 11:12:38;;;;;;;29.73;27.75;;;27.00;99.90;;;;;;4900239;29;20024;-85
2023/09/06 11:15:06;;;;;;;29.65;27.55;;;26.90;99.90;;;;;;4884912;29;20447;-89
2023/09/06 11:17:35;;;;;;;30.33;28.13;;;26.90;99.90;;;;;;4886422;29;20059;-91
2023/09/06 11:20:16;;;;;;;29.63;27.73;;;26.90;99.90;;;;;;4887238;29;20036;-91
2023/09/06 11:22:51;;;;;;;29.48;27.38;;;26.80;99.90;;;;;;4888411;29;20036;-90
2023/09/06 11:25:21;;;;;;;;;;;26.90;99.90;;;;;;4887500;29;20172;-91
2023/09/06 11:27:55;;;;;;;29.77;27.50;;;27.00;99.90;;;;;;4908732;29;20392;-91
2023/09/06 11:30:23;;;;;;;29.98;27.98;;;27.30;99.90;;;;;;4885458;29;20032;-89
2023/09/06 11:32:51;;;;;;;29.35;27.45;;;27.30;99.90;;;;;;4885238;29;20051;-90
2023/09/06 11:35:56;;;;;;;30.58;28.20;;;27.50;99.90;;;;;;4885770;29;20032;-92
2023/09/06 11:38:30;;;;;;;30.95;28.98;;;27.40;99.90;;;;;;4885336;29;20068;-90
2023/09/06 11:40:58;;;;;;;30.25;28.02;;;27.50;99.90;;;;;;4887197;29;20064;-94
2023/09/06 11:43:27;;;;;;;30.05;27.95;;;27.60;99.90;;;;;;4885426;29;20033;-92
2023/09/06 11:45:56;;;;;;;31.60;28.90;;;27.50;99.90;;;;;;4886172;29;20031;-92
2023/09/06 11:48:30;;;;;;;30.77;28.73;;;27.60;99.90;;;;;;4885510;29;20111;-94
2023/09/06 11:51:19;;;;;;;30.60;28.17;;;27.70;99.90;;;;;;4886089;29;20029;-93
2023/09/06 11:53:53;;;;;;;30.05;27.92;;;27.60;99.90;;;;;;4903620;29;20048;-90
2023/09/06 11:56:29;;;;;;;31.00;28.48;;;27.80;99.90;;;;;;4886872;29;20107;-84
2023/09/06 11:58:59;;;;;;;32.00;29.70;;;28.10;99.90;;;;;;4898621;29;20032;-83
2023/09/06 12:01:26;;;;;;;32.13;29.98;;;28.10;99.90;;;;;;4917961;29;20032;-83
2023/09/06 12:03:58;;;;;;;32.67;30.17;;;28.20;99.90;;;;;;4918252;29;20111;-84
2023/09/06 12:06:29;;;;;;;32.78;30.40;;;28.40;99.90;;;;;;4902494;29;20553;-87
2023/09/06 12:08:56;;;;;;;32.38;30.10;;;28.70;99.90;;;;;;4887228;29;20493;-88
2023/09/06 12:11:24;;;;;;;32.88;30.73;;;28.60;99.90;;;;;;4898575;29;20108;-83
2023/09/06 12:13:52;;;;;;;33.05;30.92;;;28.60;99.90;;;;;;4882538;29;20036;-86
2023/09/06 12:16:23;;;;;;;33.17;30.92;;;28.50;99.90;;;;;;4882845;29;20056;-84
2023/09/06 12:18:51;;;;;;;32.80;30.60;;;28.60;99.90;;;;;;4896912;29;20056;-84
2023/09/06 12:21:24;;;;;;;33.40;31.30;;;28.70;99.90;;;;;;4886242;29;20034;-87
2023/09/06 12:23:51;;;;;;;33.95;31.55;;;28.60;99.90;;;;;;4901355;29;20060;-87
2023/09/06 12:26:18;;;;;;;33.60;31.30;;;28.80;99.90;;;;;;4886297;29;20028;-88
2023/09/06 12:28:48;;;;;;;33.88;31.58;;;28.60;99.90;;;;;;4886276;29;20032;-87
2023/09/06 12:31:14;;;;;;;33.97;31.67;;;28.60;99.90;;;;;;4886189;29;20060;-86
2023/09/06 12:33:42;;;;;;;34.03;31.50;;;28.90;99.90;;;;;;4886119;29;20028;-88
2023/09/06 12:36:10;;;;;;;33.90;31.38;;;29.00;99.90;;;;;;4886426;29;20030;-87
2023/09/06 12:38:37;;;;;;;33.92;31.50;;;29.10;99.90;;;;;;4873980;29;20096;-88
2023/09/06 12:41:04;;;;;;;33.75;31.45;;;29.00;99.90;;;;;;4867343;29;20059;-86
2023/09/06 12:43:34;;;;;;;33.88;31.67;;;28.80;99.90;;;;;;4867062;29;20041;-85
2023/09/06 12:46:02;;;;;;;34.22;32.00;;;28.80;99.90;;;;;;4882294;29;20056;-85
2023/09/06 12:48:29;;;;;;;33.78;31.08;;;28.60;99.90;;;;;;4892794;29;20043;-83
2023/09/06 12:50:55;;;;;;;34.28;31.77;;;28.50;99.90;;;;;;4885077;29;20036;-80
2023/09/06 12:53:22;;;;;;;33.75;31.58;;;28.20;99.90;;;;;;4885133;29;20028;-83
2023/09/06 12:55:49;;;;;;;32.95;30.85;;;28.40;99.90;;;;;;4869704;29;20035;-83
2023/09/06 12:58:15;;;;;;;33.20;30.95;;;28.40;99.90;;;;;;4891302;29;20024;-84
2023/09/06 13:00:42;;;;;;;32.65;30.38;;;28.60;99.90;;;;;;4885321;29;20044;-84
2023/09/06 13:03:09;;;;;;;33.40;31.05;;;28.70;99.90;;;;;;4900058;29;20036;-85
2023/09/06 13:05:39;;;;;;;33.42;30.92;;;28.80;99.90;;;;;;4885255;29;20028;-85
2023/09/06 13:08:05;;;;;;;33.50;31.40;;;28.50;99.90;;;;;;4900379;29;20028;-84
2023/09/06 13:10:31;;;;;;;32.60;30.40;;;28.60;99.90;;;;;;4900561;29;20021;-84
2023/09/06 13:12:58;;;;;;;31.77;29.73;;;28.40;99.90;;;;;;4900578;29;20036;-82
2023/09/06 13:15:24;;;;;;;32.72;30.33;;;28.40;99.90;;;;;;4900577;29;20024;-83
2023/09/06 13:17:51;;;;;;;32.33;30.13;;;28.50;99.90;;;;;;4902232;29;20076;-88
2023/09/06 13:20:18;;;;;;;33.53;30.98;;;28.30;99.90;;;;;;4882176;29;20035;-84
2023/09/06 13:22:45;;;;;;;32.33;30.08;;;28.10;99.90;;;;;;4897523;29;20043;-83
2023/09/06 13:25:12;;;;;;;32.63;30.42;;;28.10;99.90;;;;;;4882085;29;20088;-82
2023/09/06 13:27:39;;;;;;;32.38;30.17;;;28.20;99.90;;;;;;4901815;29;20124;-81
2023/09/06 13:30:06;;;;;;;31.98;29.70;;;28.10;99.90;;;;;;4898204;29;20028;-81